createdAt,value
2022-11-22T00:00:17.761Z,30.055
2022-11-22T00:05:17.670Z,30.052
2022-11-22T00:10:21.843Z,30.048
2022-11-22T00:15:17.638Z,30.047
2022-11-22T00:20:17.703Z,30.045
2022-11-22T00:25:17.763Z,30.043
2022-11-22T00:30:17.745Z,30.044
2022-11-22T00:35:17.667Z,30.043
2022-11-22T00:40:18.209Z,30.043
2022-11-22T00:45:17.878Z,30.045
2022-11-22T00:50:17.800Z,30.044
2022-11-22T00:55:17.974Z,30.046
2022-11-22T01:00:17.938Z,30.041
2022-11-22T01:05:17.712Z,30.044
2022-11-22T01:10:17.981Z,30.045
2022-11-22T01:15:18.161Z,30.047
2022-11-22T01:20:18.156Z,30.047
2022-11-22T01:25:18.037Z,30.046
2022-11-22T01:30:18.000Z,30.047
2022-11-22T01:35:17.849Z,30.047
2022-11-22T01:40:18.104Z,30.045
2022-11-22T01:45:18.127Z,30.045
2022-11-22T01:50:18.258Z,30.041
2022-11-22T01:55:17.994Z,30.040
2022-11-22T02:00:18.077Z,30.040
2022-11-22T02:05:17.936Z,30.043
2022-11-22T02:10:18.110Z,30.042
2022-11-22T02:15:18.005Z,30.040
2022-11-22T02:20:18.052Z,30.040
2022-11-22T02:25:18.267Z,30.042
2022-11-22T02:30:18.313Z,30.043
2022-11-22T02:35:18.094Z,30.043
2022-11-22T02:40:18.175Z,30.045
2022-11-22T02:45:18.071Z,30.044
2022-11-22T02:50:18.289Z,30.038
2022-11-22T02:55:18.520Z,30.039
2022-11-22T03:00:18.355Z,30.041
2022-11-22T03:05:18.050Z,30.041
2022-11-22T03:10:16.304Z,30.037
2022-11-22T03:15:16.108Z,30.039
2022-11-22T03:20:16.251Z,30.037
2022-11-22T03:25:16.236Z,30.035
2022-11-22T03:30:16.601Z,30.032
2022-11-22T03:35:16.331Z,30.034
2022-11-22T03:40:16.617Z,30.030
2022-11-22T03:45:17.056Z,30.032
2022-11-22T03:50:16.287Z,30.028
2022-11-22T03:55:16.324Z,30.030
2022-11-22T04:00:17.788Z,30.029
2022-11-22T04:05:16.340Z,30.028
2022-11-22T04:10:20.874Z,30.031
2022-11-22T04:15:16.344Z,30.031
2022-11-22T04:20:16.719Z,30.031
2022-11-22T04:25:16.460Z,30.032
2022-11-22T04:30:20.411Z,30.034
2022-11-22T04:35:16.586Z,30.036
2022-11-22T04:40:16.623Z,30.035
2022-11-22T04:45:16.385Z,30.035
2022-11-22T04:50:16.763Z,30.037
2022-11-22T04:55:16.413Z,30.035
2022-11-22T05:00:17.680Z,30.034
2022-11-22T05:05:17.612Z,30.035
2022-11-22T05:10:22.805Z,30.035
2022-11-22T05:15:17.383Z,30.035
2022-11-22T05:20:17.617Z,30.038
2022-11-22T05:25:21.313Z,30.041
2022-11-22T05:30:17.773Z,30.041
2022-11-22T05:35:17.544Z,30.039
2022-11-22T05:40:18.006Z,30.041
2022-11-22T05:45:17.530Z,30.039
2022-11-22T05:50:17.973Z,30.042
2022-11-22T05:55:17.639Z,30.043
2022-11-22T06:00:17.674Z,30.049
2022-11-22T06:05:17.712Z,30.046
2022-11-22T06:10:18.715Z,30.050
2022-11-22T06:15:18.987Z,30.053
2022-11-22T06:20:17.759Z,30.048
2022-11-22T06:25:17.766Z,30.052
2022-11-22T06:30:17.715Z,30.050
2022-11-22T06:35:17.659Z,30.050
2022-11-22T06:40:18.095Z,30.054
2022-11-22T06:45:17.756Z,30.056
2022-11-22T06:50:21.695Z,30.062
2022-11-22T06:55:48.346Z,30.061
2022-11-22T07:00:18.341Z,30.061
2022-11-22T07:05:25.756Z,30.066
2022-11-22T07:10:17.993Z,30.074
2022-11-22T07:15:17.783Z,30.075
2022-11-22T07:20:18.100Z,30.078
2022-11-22T07:25:18.166Z,30.075
2022-11-22T07:30:17.866Z,30.082
2022-11-22T07:35:18.078Z,30.085
2022-11-22T07:40:18.011Z,30.089
2022-11-22T07:45:17.904Z,30.090
2022-11-22T07:50:17.965Z,30.088
2022-11-22T07:55:17.988Z,30.088
2022-11-22T08:00:18.215Z,30.090
2022-11-22T08:05:17.988Z,30.089
2022-11-22T08:10:18.366Z,30.089
2022-11-22T08:15:18.086Z,30.092
2022-11-22T08:20:18.076Z,30.096
2022-11-22T08:25:18.212Z,30.096
2022-11-22T08:30:18.091Z,30.099
2022-11-22T08:35:18.194Z,30.099
2022-11-22T08:40:19.990Z,30.100
2022-11-22T08:45:18.214Z,30.104
2022-11-22T08:50:18.177Z,30.104
2022-11-22T09:00:18.016Z,30.108
2022-11-22T09:05:18.157Z,30.108
2022-11-22T09:10:18.671Z,30.109
2022-11-22T09:15:18.084Z,30.110
2022-11-22T09:20:16.486Z,30.114
2022-11-22T09:25:16.245Z,30.115
2022-11-22T09:30:16.474Z,30.116
2022-11-22T09:35:16.151Z,30.117
2022-11-22T09:40:16.579Z,30.117
2022-11-22T09:45:16.392Z,30.120
2022-11-22T09:50:16.312Z,30.122
2022-11-22T09:55:18.820Z,30.124
2022-11-22T10:00:16.304Z,30.125
2022-11-22T10:05:16.277Z,30.128
2022-11-22T10:10:16.379Z,30.130
2022-11-22T10:15:16.360Z,30.135
2022-11-22T10:20:16.607Z,30.134
2022-11-22T10:25:16.503Z,30.139
2022-11-22T10:30:16.741Z,30.145
2022-11-22T10:35:16.497Z,30.148
2022-11-22T10:40:16.594Z,30.150
2022-11-22T10:45:16.370Z,30.151
2022-11-22T10:50:16.813Z,30.153
2022-11-22T10:55:16.451Z,30.154
2022-11-22T11:00:16.743Z,30.157
2022-11-22T11:05:16.503Z,30.159
2022-11-22T11:10:26.271Z,30.161
2022-11-22T11:15:16.424Z,30.161
2022-11-22T11:20:16.569Z,30.162
2022-11-22T11:25:16.661Z,30.163
2022-11-22T11:30:16.614Z,30.169
2022-11-22T11:35:16.411Z,30.170
2022-11-22T11:40:17.360Z,30.173
2022-11-22T11:45:16.625Z,30.174
2022-11-22T11:50:20.946Z,30.175
2022-11-22T11:55:16.612Z,30.178
2022-11-22T12:00:16.803Z,30.181
2022-11-22T12:05:16.584Z,30.183
2022-11-22T12:10:16.795Z,30.184
2022-11-22T12:15:17.194Z,30.184
2022-11-22T12:20:16.972Z,30.189
2022-11-22T12:25:32.026Z,30.198
2022-11-22T12:30:16.764Z,30.201
2022-11-22T12:35:16.927Z,30.195
2022-11-22T12:40:16.869Z,30.190
2022-11-22T12:45:17.113Z,30.194
2022-11-22T12:50:17.147Z,30.210
2022-11-22T12:55:16.945Z,30.216
2022-11-22T13:00:16.947Z,30.214
2022-11-22T13:05:16.880Z,30.206
2022-11-22T13:10:17.113Z,30.206
2022-11-22T13:15:16.748Z,30.209
2022-11-22T13:20:16.936Z,30.207
2022-11-22T13:25:16.794Z,30.215
2022-11-22T13:30:17.063Z,30.221
2022-11-22T13:35:16.929Z,30.216
2022-11-22T13:40:17.371Z,30.215
2022-11-22T13:45:17.020Z,30.212
2022-11-22T13:50:16.995Z,30.214
2022-11-22T13:55:16.901Z,30.221
2022-11-22T14:00:17.117Z,30.224
2022-11-22T14:05:16.830Z,30.222
2022-11-22T14:10:17.244Z,30.214
2022-11-22T14:15:16.976Z,30.213
2022-11-22T14:20:17.261Z,30.219
2022-11-22T14:25:17.018Z,30.224
2022-11-22T14:30:16.913Z,30.219
2022-11-22T14:35:16.997Z,30.212
2022-11-22T14:40:17.223Z,30.212
2022-11-22T14:45:21.617Z,30.217
2022-11-22T14:50:17.074Z,30.218
2022-11-22T14:55:17.438Z,30.214
2022-11-22T15:00:17.332Z,30.214
2022-11-22T15:09:10.056Z,30.216
2022-11-22T15:09:14.329Z,30.216
2022-11-22T15:09:15.572Z,30.216
2022-11-22T15:10:17.550Z,30.212
2022-11-22T15:57:19.627Z,30.199
2022-11-22T16:00:17.255Z,30.199
2022-11-22T16:06:08.000Z,30.204
2022-11-22T16:10:17.621Z,30.201
2022-11-22T16:15:17.307Z,30.199
2022-11-22T16:20:17.541Z,30.195
2022-11-22T16:25:17.375Z,30.193
2022-11-22T16:30:23.335Z,30.192
2022-11-22T16:35:29.078Z,30.191
2022-11-22T16:40:17.745Z,30.191
2022-11-22T16:45:17.363Z,30.187
2022-11-22T16:50:17.457Z,30.185
2022-11-22T16:55:17.485Z,30.187
2022-11-22T17:00:17.470Z,30.184
2022-11-22T17:05:17.382Z,30.179
2022-11-22T17:10:17.699Z,30.179
2022-11-22T17:15:17.440Z,30.176
2022-11-22T17:20:17.711Z,30.175
2022-11-22T17:25:17.478Z,30.176
2022-11-22T17:30:17.697Z,30.175
2022-11-22T17:35:17.474Z,30.174
2022-11-22T17:40:17.672Z,30.169
2022-11-22T17:45:17.637Z,30.166
2022-11-22T17:50:17.669Z,30.165
2022-11-22T17:55:17.696Z,30.161
2022-11-22T18:00:17.639Z,30.156
2022-11-22T18:05:17.557Z,30.156
2022-11-22T18:10:17.737Z,30.160
2022-11-22T18:15:17.568Z,30.157
2022-11-22T18:20:17.998Z,30.153
2022-11-22T18:25:17.877Z,30.152
2022-11-22T18:30:17.893Z,30.153
2022-11-22T18:35:17.648Z,30.155
2022-11-22T18:40:17.972Z,30.150
2022-11-22T18:45:17.744Z,30.150
2022-11-22T18:50:18.289Z,30.154
2022-11-22T18:55:17.850Z,30.156
2022-11-22T19:00:17.779Z,30.151
2022-11-22T19:05:23.274Z,30.147
2022-11-22T19:10:18.066Z,30.146
2022-11-22T19:15:17.746Z,30.146
2022-11-22T19:20:47.355Z,30.147
2022-11-22T19:25:18.065Z,30.145
2022-11-22T19:30:17.857Z,30.146
2022-11-22T19:35:17.823Z,30.146
2022-11-22T19:40:18.008Z,30.141
2022-11-22T19:45:17.873Z,30.136
2022-11-22T19:50:18.212Z,30.140
2022-11-22T19:55:18.093Z,30.141
2022-11-22T20:00:18.110Z,30.135
2022-11-22T20:05:17.892Z,30.132
2022-11-22T20:10:18.104Z,30.134
2022-11-22T20:15:17.843Z,30.134
2022-11-22T20:20:18.008Z,30.133
2022-11-22T20:25:18.075Z,30.131
2022-11-22T20:30:17.952Z,30.130
2022-11-22T20:35:18.081Z,30.128
2022-11-22T20:40:18.018Z,30.128
2022-11-22T20:45:17.946Z,30.127
2022-11-22T20:50:18.263Z,30.126
2022-11-22T20:55:18.111Z,30.125
2022-11-22T21:00:18.374Z,30.125
2022-11-22T21:05:18.091Z,30.120
2022-11-22T21:10:19.727Z,30.118
2022-11-22T21:15:18.858Z,30.117
2022-11-22T21:20:18.140Z,30.116
2022-11-22T21:25:18.331Z,30.115
2022-11-22T21:30:18.311Z,30.112
2022-11-22T21:35:18.091Z,30.113
2022-11-22T21:40:16.787Z,30.113
2022-11-22T21:45:16.345Z,30.114
2022-11-22T21:50:16.547Z,30.115
2022-11-22T21:55:16.746Z,30.116
2022-11-22T22:00:16.279Z,30.115
2022-11-22T22:05:16.188Z,30.114
2022-11-22T22:10:16.820Z,30.115
2022-11-22T22:15:16.272Z,30.112
2022-11-22T22:20:16.600Z,30.113
2022-11-22T22:25:16.349Z,30.112
2022-11-22T22:30:16.428Z,30.115
2022-11-22T22:35:16.259Z,30.112
2022-11-22T22:40:16.487Z,30.112
2022-11-22T22:45:16.372Z,30.109
2022-11-22T22:50:16.646Z,30.111
2022-11-22T22:55:17.868Z,30.112
2022-11-22T23:00:16.590Z,30.110
2022-11-22T23:05:16.434Z,30.109
2022-11-22T23:10:16.623Z,30.109
2022-11-22T23:15:17.628Z,30.110
2022-11-22T23:20:16.856Z,30.111
2022-11-22T23:25:16.519Z,30.112
2022-11-22T23:30:16.644Z,30.110
2022-11-22T23:35:16.376Z,30.109
2022-11-22T23:40:16.643Z,30.110
2022-11-22T23:45:16.487Z,30.108
2022-11-22T23:50:16.694Z,30.108
2022-11-22T23:55:16.510Z,30.107
